BAW281 EGCC-EGPH
Flight info
| Callsign | BAW281 |
|---|---|
| Flight time | 0h 41m |
| Altitude | 24000 |
| Route | POL N601 INPIP |
| Aircraft | A320/M-SDE3FGHIRWY/LB1 |
Departure
| Time | 2026-05-07 15:21 |
|---|---|
| Airport | Manchester Airport (EGCC) |
Arrival
| Time | 2026-05-07 16:03 |
|---|---|
| Airport | Edinburgh Airport (EGPH) |
| Time | Latitude | Longitude | Altitude | Speed | Heading |
|---|---|---|---|---|---|
| 2026-05-07 14:41 | 53.35899 | -2.27034 | 247 ft | 0 kts | 321° |
| 2026-05-07 15:11 | 53.35888 | -2.27019 | 247 ft | 2 kts | 322° |
| 2026-05-07 15:11 | 53.35875 | -2.27002 | 247 ft | 2 kts | 323° |
| 2026-05-07 15:11 | 53.35861 | -2.26986 | 247 ft | 2 kts | 323° |
| 2026-05-07 15:11 | 53.35850 | -2.26969 | 247 ft | 1 kts | 283° |
| 2026-05-07 15:12 | 53.35849 | -2.26966 | 247 ft | 0 kts | 278° |
| 2026-05-07 15:13 | 53.35849 | -2.26974 | 247 ft | 4 kts | 266° |
| 2026-05-07 15:13 | 53.35829 | -2.27044 | 246 ft | 6 kts | 228° |
| 2026-05-07 15:13 | 53.35789 | -2.27106 | 245 ft | 10 kts | 227° |
| 2026-05-07 15:14 | 53.35746 | -2.27190 | 244 ft | 9 kts | 233° |
| 2026-05-07 15:14 | 53.35706 | -2.27278 | 243 ft | 0 kts | 232° |
| 2026-05-07 15:14 | 53.35706 | -2.27279 | 243 ft | 0 kts | 232° |
| 2026-05-07 15:14 | 53.35703 | -2.27285 | 243 ft | 2 kts | 231° |
| 2026-05-07 15:15 | 53.35678 | -2.27336 | 243 ft | 10 kts | 231° |
| 2026-05-07 15:15 | 53.35631 | -2.27431 | 241 ft | 10 kts | 230° |
| 2026-05-07 15:15 | 53.35583 | -2.27473 | 241 ft | 8 kts | 182° |
| 2026-05-07 15:15 | 53.35571 | -2.27460 | 241 ft | 0 kts | 136° |
| 2026-05-07 15:17 | 53.35568 | -2.27455 | 241 ft | 3 kts | 136° |
| 2026-05-07 15:18 | 53.35525 | -2.27394 | 241 ft | 13 kts | 141° |
| 2026-05-07 15:18 | 53.35432 | -2.27267 | 242 ft | 22 kts | 141° |
| 2026-05-07 15:18 | 53.35320 | -2.27192 | 240 ft | 18 kts | 189° |
| 2026-05-07 15:18 | 53.35181 | -2.27241 | 239 ft | 10 kts | 191° |
| 2026-05-07 15:19 | 53.35155 | -2.27249 | 239 ft | 0 kts | 191° |
| 2026-05-07 15:20 | 53.35125 | -2.27259 | 239 ft | 11 kts | 191° |
| 2026-05-07 15:20 | 53.35002 | -2.27332 | 237 ft | 23 kts | 232° |
| 2026-05-07 15:20 | 53.34891 | -2.27564 | 235 ft | 30 kts | 229° |
| 2026-05-07 15:21 | 53.34742 | -2.27867 | 230 ft | 45 kts | 229° |
| 2026-05-07 15:21 | 53.34390 | -2.28601 | 222 ft | 114 kts | 230° |
| 2026-05-07 15:21 | 53.33801 | -2.29838 | 332 ft | 142 kts | 225° |
| 2026-05-07 15:21 | 53.33214 | -2.31128 | 906 ft | 143 kts | 232° |
| 2026-05-07 15:22 | 53.32584 | -2.32455 | 1543 ft | 149 kts | 226° |
| 2026-05-07 15:22 | 53.31883 | -2.33901 | 2058 ft | 172 kts | 230° |
| 2026-05-07 15:22 | 53.31324 | -2.35775 | 2620 ft | 190 kts | 253° |
| 2026-05-07 15:22 | 53.31310 | -2.37916 | 3583 ft | 181 kts | 276° |
| 2026-05-07 15:23 | 53.31596 | -2.39718 | 4196 ft | 186 kts | 286° |
| 2026-05-07 15:23 | 53.31758 | -2.40390 | 4388 ft | 188 kts | 292° |
| 2026-05-07 15:23 | 53.32548 | -2.42259 | 4858 ft | 210 kts | 316° |
| 2026-05-07 15:23 | 53.33837 | -2.43549 | 5375 ft | 231 kts | 336° |
| 2026-05-07 15:24 | 53.35552 | -2.44143 | 5529 ft | 269 kts | 2° |
| 2026-05-07 15:24 | 53.37424 | -2.43878 | 5943 ft | 285 kts | 4° |
| 2026-05-07 15:24 | 53.39399 | -2.43693 | 6074 ft | 283 kts | 355° |
| 2026-05-07 15:24 | 53.41303 | -2.44449 | 6698 ft | 284 kts | 340° |
| 2026-05-07 15:25 | 53.43188 | -2.45470 | 7645 ft | 286 kts | 340° |
| 2026-05-07 15:25 | 53.45159 | -2.46114 | 8573 ft | 293 kts | 357° |
| 2026-05-07 15:25 | 53.47192 | -2.45650 | 9484 ft | 299 kts | 18° |
| 2026-05-07 15:25 | 53.49052 | -2.44074 | 10308 ft | 303 kts | 37° |
| 2026-05-07 15:26 | 53.50754 | -2.41838 | 10839 ft | 319 kts | 39° |
| 2026-05-07 15:26 | 53.52542 | -2.39457 | 11288 ft | 336 kts | 39° |
| 2026-05-07 15:26 | 53.54421 | -2.36958 | 11743 ft | 351 kts | 39° |
| 2026-05-07 15:26 | 53.56358 | -2.34384 | 12424 ft | 358 kts | 39° |
| 2026-05-07 15:27 | 53.58321 | -2.31772 | 13209 ft | 361 kts | 39° |
| 2026-05-07 15:27 | 53.60302 | -2.29127 | 13953 ft | 366 kts | 39° |
| 2026-05-07 15:27 | 53.62309 | -2.26455 | 14648 ft | 369 kts | 39° |
| 2026-05-07 15:27 | 53.64331 | -2.23768 | 15338 ft | 372 kts | 39° |
| 2026-05-07 15:28 | 53.66344 | -2.21091 | 16003 ft | 375 kts | 39° |
| 2026-05-07 15:28 | 53.68427 | -2.18312 | 16675 ft | 378 kts | 39° |
| 2026-05-07 15:28 | 53.70585 | -2.15742 | 17340 ft | 382 kts | 29° |
| 2026-05-07 15:28 | 53.73038 | -2.14000 | 18020 ft | 385 kts | 15° |
| 2026-05-07 15:29 | 53.75648 | -2.13241 | 18639 ft | 387 kts | 2° |
| 2026-05-07 15:29 | 53.78338 | -2.13497 | 19236 ft | 389 kts | 348° |
| 2026-05-07 15:29 | 53.80934 | -2.14774 | 19831 ft | 390 kts | 336° |
| 2026-05-07 15:29 | 53.83463 | -2.16520 | 20431 ft | 394 kts | 336° |
| 2026-05-07 15:30 | 53.86016 | -2.18279 | 21000 ft | 399 kts | 336° |
| 2026-05-07 15:30 | 53.88601 | -2.20052 | 21574 ft | 402 kts | 336° |
| 2026-05-07 15:30 | 53.91208 | -2.21835 | 22140 ft | 406 kts | 336° |
| 2026-05-07 15:30 | 53.93843 | -2.23637 | 22693 ft | 410 kts | 336° |
| 2026-05-07 15:31 | 53.96501 | -2.25459 | 23241 ft | 414 kts | 336° |
| 2026-05-07 15:31 | 53.99182 | -2.27300 | 23751 ft | 418 kts | 336° |
| 2026-05-07 15:31 | 54.01883 | -2.29157 | 23976 ft | 420 kts | 336° |
| 2026-05-07 15:31 | 54.04589 | -2.31023 | 24032 ft | 419 kts | 336° |
| 2026-05-07 15:32 | 54.07292 | -2.32892 | 24033 ft | 419 kts | 336° |
| 2026-05-07 15:32 | 54.09992 | -2.34763 | 24034 ft | 419 kts | 336° |
| 2026-05-07 15:32 | 54.12695 | -2.36640 | 24031 ft | 419 kts | 336° |
| 2026-05-07 15:32 | 54.15396 | -2.38516 | 24033 ft | 420 kts | 336° |
| 2026-05-07 15:33 | 54.18103 | -2.40395 | 24033 ft | 420 kts | 336° |
| 2026-05-07 15:33 | 54.20809 | -2.42273 | 24029 ft | 420 kts | 336° |
| 2026-05-07 15:33 | 54.23514 | -2.44155 | 24031 ft | 420 kts | 336° |
| 2026-05-07 15:33 | 54.26219 | -2.46040 | 24030 ft | 420 kts | 336° |
| 2026-05-07 15:34 | 54.28930 | -2.47930 | 24029 ft | 421 kts | 336° |
| 2026-05-07 15:34 | 54.31642 | -2.49821 | 24028 ft | 421 kts | 336° |
| 2026-05-07 15:34 | 54.34350 | -2.51714 | 24029 ft | 420 kts | 336° |
| 2026-05-07 15:34 | 54.37057 | -2.53611 | 24031 ft | 421 kts | 336° |
| 2026-05-07 15:35 | 54.39769 | -2.55516 | 24027 ft | 421 kts | 336° |
| 2026-05-07 15:35 | 54.42480 | -2.57423 | 24028 ft | 421 kts | 336° |
| 2026-05-07 15:35 | 54.45186 | -2.59325 | 24024 ft | 421 kts | 336° |
| 2026-05-07 15:35 | 54.47897 | -2.61235 | 24024 ft | 421 kts | 336° |
| 2026-05-07 15:36 | 54.50603 | -2.63146 | 24022 ft | 421 kts | 335° |
| 2026-05-07 15:36 | 54.53315 | -2.65065 | 24017 ft | 421 kts | 335° |
| 2026-05-07 15:36 | 54.56022 | -2.66984 | 24019 ft | 421 kts | 335° |
| 2026-05-07 15:36 | 54.58734 | -2.68908 | 24018 ft | 421 kts | 335° |
| 2026-05-07 15:37 | 54.61440 | -2.70830 | 24015 ft | 421 kts | 335° |
| 2026-05-07 15:37 | 54.64148 | -2.72755 | 24014 ft | 421 kts | 335° |
| 2026-05-07 15:37 | 54.66854 | -2.74683 | 24015 ft | 421 kts | 335° |
| 2026-05-07 15:37 | 54.69561 | -2.76615 | 24010 ft | 421 kts | 335° |
| 2026-05-07 15:38 | 54.72267 | -2.78550 | 24010 ft | 421 kts | 335° |
| 2026-05-07 15:38 | 54.74971 | -2.80490 | 24010 ft | 421 kts | 334° |
| 2026-05-07 15:38 | 54.77659 | -2.82479 | 24000 ft | 421 kts | 335° |
| 2026-05-07 15:38 | 54.79449 | -2.83778 | 24001 ft | 421 kts | 335° |
| 2026-05-07 15:39 | 54.83072 | -2.86364 | 24003 ft | 421 kts | 335° |
| 2026-05-07 15:39 | 54.85782 | -2.88291 | 24001 ft | 421 kts | 335° |
| 2026-05-07 15:39 | 54.87578 | -2.89571 | 24000 ft | 421 kts | 335° |
| 2026-05-07 15:39 | 54.90285 | -2.91508 | 24000 ft | 421 kts | 335° |
| 2026-05-07 15:40 | 54.92989 | -2.93455 | 24005 ft | 421 kts | 335° |
| 2026-05-07 15:40 | 54.95695 | -2.95414 | 24001 ft | 422 kts | 335° |
| 2026-05-07 15:40 | 54.98401 | -2.97373 | 24001 ft | 422 kts | 335° |
| 2026-05-07 15:40 | 55.01112 | -2.99337 | 23998 ft | 422 kts | 335° |
| 2026-05-07 15:41 | 55.03808 | -3.01296 | 23516 ft | 419 kts | 335° |
| 2026-05-07 15:41 | 55.06485 | -3.03244 | 22318 ft | 416 kts | 335° |
| 2026-05-07 15:41 | 55.09138 | -3.05181 | 21256 ft | 411 kts | 335° |
| 2026-05-07 15:41 | 55.11745 | -3.07090 | 20602 ft | 397 kts | 335° |
| 2026-05-07 15:42 | 55.14236 | -3.08910 | 20133 ft | 379 kts | 335° |
| 2026-05-07 15:42 | 55.16627 | -3.10657 | 19483 ft | 370 kts | 335° |
| 2026-05-07 15:42 | 55.19028 | -3.12417 | 18637 ft | 373 kts | 335° |
| 2026-05-07 15:42 | 55.21399 | -3.14160 | 17805 ft | 367 kts | 335° |
| 2026-05-07 15:43 | 55.23738 | -3.15879 | 17033 ft | 362 kts | 334° |
| 2026-05-07 15:43 | 55.26045 | -3.17577 | 16394 ft | 353 kts | 334° |
| 2026-05-07 15:43 | 55.28255 | -3.19137 | 16091 ft | 334 kts | 339° |
| 2026-05-07 15:43 | 55.30486 | -3.19982 | 15838 ft | 329 kts | 352° |
| 2026-05-07 15:44 | 55.32796 | -3.19988 | 15585 ft | 334 kts | 3° |
| 2026-05-07 15:44 | 55.35112 | -3.19621 | 15091 ft | 336 kts | 3° |
| 2026-05-07 15:44 | 55.37439 | -3.19252 | 14698 ft | 334 kts | 2° |
| 2026-05-07 15:44 | 55.39743 | -3.18889 | 14339 ft | 331 kts | 2° |
| 2026-05-07 15:45 | 55.42036 | -3.18528 | 13965 ft | 330 kts | 2° |
| 2026-05-07 15:45 | 55.44319 | -3.18167 | 13577 ft | 329 kts | 2° |
| 2026-05-07 15:45 | 55.46590 | -3.17809 | 13160 ft | 327 kts | 2° |
| 2026-05-07 15:45 | 55.48848 | -3.17458 | 12769 ft | 323 kts | 2° |
| 2026-05-07 15:46 | 55.53273 | -3.16765 | 11369 ft | 317 kts | 2° |
| 2026-05-07 15:46 | 55.55461 | -3.16422 | 10695 ft | 314 kts | 2° |
| 2026-05-07 15:46 | 55.57621 | -3.16082 | 10059 ft | 310 kts | 2° |
| 2026-05-07 15:47 | 55.59760 | -3.15743 | 9373 ft | 307 kts | 2° |
| 2026-05-07 15:47 | 55.61879 | -3.15408 | 8686 ft | 304 kts | 2° |
| 2026-05-07 15:47 | 55.63966 | -3.15079 | 8054 ft | 298 kts | 2° |
| 2026-05-07 15:47 | 55.66014 | -3.14753 | 7538 ft | 295 kts | 2° |
| 2026-05-07 15:48 | 55.68061 | -3.14427 | 7086 ft | 291 kts | 2° |
| 2026-05-07 15:48 | 55.70014 | -3.14114 | 6869 ft | 274 kts | 3° |
| 2026-05-07 15:48 | 55.71861 | -3.13816 | 6936 ft | 270 kts | 2° |
| 2026-05-07 15:48 | 55.73721 | -3.13999 | 6886 ft | 265 kts | 335° |
| 2026-05-07 15:49 | 55.75149 | -3.15815 | 6774 ft | 249 kts | 298° |
| 2026-05-07 15:49 | 55.75624 | -3.18615 | 6640 ft | 235 kts | 261° |
| 2026-05-07 15:49 | 55.75005 | -3.21175 | 6525 ft | 227 kts | 223° |
| 2026-05-07 15:49 | 55.73661 | -3.22462 | 6396 ft | 217 kts | 199° |
| 2026-05-07 15:50 | 55.72254 | -3.23262 | 6261 ft | 207 kts | 199° |
| 2026-05-07 15:50 | 55.70907 | -3.23921 | 6194 ft | 193 kts | 205° |
| 2026-05-07 15:50 | 55.70006 | -3.25533 | 6092 ft | 193 kts | 250° |
| 2026-05-07 15:50 | 55.70086 | -3.27887 | 5985 ft | 207 kts | 293° |
| 2026-05-07 15:51 | 55.71153 | -3.29675 | 5856 ft | 223 kts | 333° |
| 2026-05-07 15:51 | 55.72709 | -3.30056 | 5785 ft | 233 kts | 7° |
| 2026-05-07 15:51 | 55.74220 | -3.29027 | 5728 ft | 236 kts | 36° |
| 2026-05-07 15:51 | 55.75367 | -3.26980 | 5672 ft | 234 kts | 55° |
| 2026-05-07 15:52 | 55.76332 | -3.24655 | 5616 ft | 234 kts | 56° |
| 2026-05-07 15:52 | 55.77283 | -3.22310 | 5556 ft | 234 kts | 57° |
| 2026-05-07 15:52 | 55.78236 | -3.19955 | 5506 ft | 234 kts | 57° |
| 2026-05-07 15:52 | 55.79182 | -3.17617 | 5453 ft | 233 kts | 56° |
| 2026-05-07 15:53 | 55.80132 | -3.15275 | 5396 ft | 234 kts | 56° |
| 2026-05-07 15:53 | 55.81081 | -3.12938 | 5344 ft | 232 kts | 56° |
| 2026-05-07 15:53 | 55.82027 | -3.10610 | 5287 ft | 232 kts | 56° |
| 2026-05-07 15:53 | 55.82974 | -3.08281 | 5235 ft | 232 kts | 57° |
| 2026-05-07 15:54 | 55.83971 | -3.06031 | 5175 ft | 231 kts | 41° |
| 2026-05-07 15:54 | 55.85365 | -3.04662 | 5135 ft | 232 kts | 12° |
| 2026-05-07 15:54 | 55.86952 | -3.04158 | 5076 ft | 232 kts | 7° |
| 2026-05-07 15:54 | 55.88535 | -3.03682 | 5019 ft | 230 kts | 8° |
| 2026-05-07 15:55 | 55.90105 | -3.03188 | 4933 ft | 229 kts | 8° |
| 2026-05-07 15:55 | 55.91673 | -3.02685 | 4811 ft | 229 kts | 8° |
| 2026-05-07 15:55 | 55.93238 | -3.02181 | 4695 ft | 228 kts | 8° |
| 2026-05-07 15:55 | 55.94804 | -3.01864 | 4563 ft | 225 kts | 357° |
| 2026-05-07 15:56 | 55.96356 | -3.02126 | 4435 ft | 223 kts | 349° |
| 2026-05-07 15:56 | 55.97883 | -3.02486 | 4314 ft | 217 kts | 349° |
| 2026-05-07 15:56 | 55.99348 | -3.02819 | 4193 ft | 208 kts | 349° |
| 2026-05-07 15:56 | 56.00785 | -3.03150 | 4080 ft | 208 kts | 348° |
| 2026-05-07 15:57 | 56.02082 | -3.04066 | 3999 ft | 195 kts | 315° |
| 2026-05-07 15:57 | 56.02855 | -3.05863 | 3904 ft | 175 kts | 286° |
| 2026-05-07 15:57 | 56.03173 | -3.07889 | 3788 ft | 165 kts | 278° |
| 2026-05-07 15:57 | 56.03374 | -3.09840 | 3691 ft | 153 kts | 266° |
| 2026-05-07 15:58 | 56.03306 | -3.11661 | 3633 ft | 141 kts | 253° |
| 2026-05-07 15:58 | 56.02977 | -3.13190 | 3560 ft | 130 kts | 238° |
| 2026-05-07 15:58 | 56.02548 | -3.14645 | 3253 ft | 135 kts | 237° |
| 2026-05-07 15:58 | 56.02094 | -3.16095 | 3015 ft | 128 kts | 236° |
| 2026-05-07 15:59 | 56.01644 | -3.17483 | 3007 ft | 129 kts | 235° |
| 2026-05-07 15:59 | 56.01198 | -3.18836 | 2830 ft | 122 kts | 235° |
| 2026-05-07 15:59 | 56.00761 | -3.20146 | 2397 ft | 124 kts | 234° |
| 2026-05-07 15:59 | 56.00316 | -3.21475 | 1958 ft | 125 kts | 234° |
| 2026-05-07 16:00 | 55.99868 | -3.22813 | 1581 ft | 125 kts | 233° |
| 2026-05-07 16:00 | 55.99423 | -3.24136 | 1509 ft | 125 kts | 234° |
| 2026-05-07 16:00 | 55.98977 | -3.25478 | 1492 ft | 126 kts | 234° |
| 2026-05-07 16:00 | 55.98560 | -3.26841 | 1353 ft | 124 kts | 237° |
| 2026-05-07 16:01 | 55.98132 | -3.28184 | 1140 ft | 125 kts | 232° |
| 2026-05-07 16:01 | 55.97663 | -3.29491 | 947 ft | 126 kts | 233° |
| 2026-05-07 16:01 | 55.97209 | -3.30825 | 777 ft | 126 kts | 234° |
| 2026-05-07 16:01 | 55.96764 | -3.32154 | 583 ft | 124 kts | 231° |
| 2026-05-07 16:02 | 55.96289 | -3.33460 | 432 ft | 124 kts | 234° |
| 2026-05-07 16:02 | 55.95833 | -3.34807 | 245 ft | 121 kts | 236° |
| 2026-05-07 16:02 | 55.95426 | -3.35997 | 117 ft | 104 kts | 235° |
| 2026-05-07 16:02 | 55.95108 | -3.36916 | 112 ft | 64 kts | 239° |
| 2026-05-07 16:03 | 55.94986 | -3.37278 | 113 ft | 8 kts | 237° |
| 2026-05-07 16:03 | 55.94952 | -3.37380 | 111 ft | 22 kts | 242° |
| 2026-05-07 16:03 | 55.94850 | -3.37679 | 116 ft | 30 kts | 239° |
| 2026-05-07 16:03 | 55.94753 | -3.37977 | 120 ft | 22 kts | 239° |
| 2026-05-07 16:04 | 55.94673 | -3.38036 | 117 ft | 13 kts | 147° |
| 2026-05-07 16:04 | 55.94653 | -3.38013 | 117 ft | 0 kts | 148° |
| 2026-05-07 16:05 | 55.94652 | -3.38012 | 117 ft | 2 kts | 148° |
| 2026-05-07 16:05 | 55.94624 | -3.37981 | 113 ft | 7 kts | 148° |
| 2026-05-07 16:05 | 55.94594 | -3.37899 | 116 ft | 9 kts | 84° |
| 2026-05-07 16:05 | 55.94625 | -3.37781 | 114 ft | 11 kts | 57° |
| 2026-05-07 16:06 | 55.94671 | -3.37651 | 117 ft | 14 kts | 60° |
| 2026-05-07 16:06 | 55.94730 | -3.37473 | 114 ft | 19 kts | 58° |
| 2026-05-07 16:06 | 55.94803 | -3.37255 | 110 ft | 23 kts | 57° |
| 2026-05-07 16:06 | 55.94891 | -3.36998 | 109 ft | 23 kts | 59° |
| 2026-05-07 16:07 | 55.94922 | -3.36903 | 109 ft | 0 kts | 60° |
| 2026-05-07 16:07 | 55.94926 | -3.36889 | 109 ft | 3 kts | 61° |
| 2026-05-07 16:07 | 55.94923 | -3.36850 | 110 ft | 4 kts | 115° |
| 2026-05-07 16:07 | 55.94890 | -3.36796 | 109 ft | 7 kts | 140° |
| 2026-05-07 16:08 | 55.94893 | -3.36737 | 110 ft | 6 kts | 51° |
| 2026-05-07 16:08 | 55.94926 | -3.36659 | 111 ft | 10 kts | 57° |
| 2026-05-07 16:08 | 55.94973 | -3.36519 | 110 ft | 16 kts | 59° |
| 2026-05-07 16:08 | 55.94989 | -3.36405 | 110 ft | 5 kts | 152° |
| 2026-05-07 16:09 | 55.94944 | -3.36361 | 109 ft | 6 kts | 147° |
| 2026-05-07 16:09 | 55.94939 | -3.36355 | 107 ft | 0 kts | 147° |